createdAt,value
2017-02-21T04:48:46.368Z,8.92
2017-02-21T04:49:26.866Z,8.99
2017-02-21T04:50:07.389Z,9.03
2017-02-21T04:50:47.751Z,9.05
2017-02-21T04:51:28.125Z,9.19
2017-02-21T04:52:08.631Z,9.05
2017-02-21T04:52:49.059Z,9.02
2017-02-21T04:53:29.500Z,9
2017-02-21T04:54:09.906Z,8.93
2017-02-21T04:54:50.305Z,8.99
2017-02-21T04:55:30.756Z,8.92
2017-02-21T04:56:11.149Z,8.87
2017-02-21T04:56:51.582Z,8.87
2017-02-21T04:57:31.976Z,8.89
2017-02-21T04:58:12.337Z,8.9
2017-02-21T04:58:52.807Z,8.93
2017-02-21T04:59:33.224Z,8.81
2017-02-21T05:00:14.647Z,8.81
2017-02-21T05:00:55.035Z,8.9
2017-02-21T05:01:35.434Z,8.9
2017-02-21T05:02:15.844Z,8.79
2017-02-21T05:02:56.783Z,8.86
2017-02-21T05:03:37.250Z,8.86
2017-02-21T05:04:17.693Z,8.79
2017-02-21T05:04:58.112Z,8.87
2017-02-21T05:05:38.535Z,8.86
2017-02-21T05:06:19.013Z,8.82
2017-02-21T05:06:59.521Z,8.82
2017-02-21T05:07:39.963Z,8.86
2017-02-21T05:08:20.899Z,8.82
2017-02-21T05:09:01.342Z,8.89
2017-02-21T05:09:41.741Z,8.86
2017-02-21T05:10:22.217Z,8.87
2017-02-21T05:11:02.666Z,8.9
2017-02-21T05:11:43.049Z,8.87
2017-02-21T05:12:23.474Z,8.89
2017-02-21T05:13:04.585Z,8.9
2017-02-21T05:13:45.029Z,8.96
2017-02-21T05:14:25.426Z,8.95
2017-02-21T05:15:05.826Z,8.93
2017-02-21T05:15:46.214Z,8.82
2017-02-21T05:16:26.739Z,8.9
2017-02-21T05:17:07.167Z,8.92
2017-02-21T05:17:47.637Z,8.89
2017-02-21T05:18:28.003Z,8.92
2017-02-21T05:19:08.367Z,8.87
2017-02-21T05:19:48.842Z,8.9
2017-02-21T05:20:29.276Z,8.89
2017-02-21T05:21:09.713Z,8.87
2017-02-21T05:21:50.104Z,8.9
2017-02-21T05:22:30.560Z,8.87
2017-02-21T05:23:10.993Z,8.82
2017-02-21T05:23:51.452Z,8.92
2017-02-21T05:24:31.854Z,8.89
2017-02-21T05:25:12.326Z,8.92
2017-02-21T05:25:52.825Z,8.93
2017-02-21T05:26:33.357Z,8.96
2017-02-21T05:27:13.742Z,8.87
2017-02-21T05:27:54.224Z,8.96
2017-02-21T05:28:34.643Z,9
2017-02-21T05:29:15.083Z,9.02
2017-02-21T05:29:55.575Z,8.95
2017-02-21T05:30:35.987Z,8.99
2017-02-21T05:31:16.436Z,9.02
2017-02-21T05:31:56.878Z,8.97
2017-02-21T05:32:37.248Z,8.99
2017-02-21T05:33:17.712Z,9.03
2017-02-21T05:33:58.140Z,8.96
2017-02-21T05:34:38.542Z,9
2017-02-21T05:35:18.946Z,8.96
2017-02-21T05:35:59.436Z,9
2017-02-21T05:36:39.863Z,9.02
2017-02-21T05:37:20.316Z,8.95
2017-02-21T05:38:00.742Z,9.08
2017-02-21T05:38:41.390Z,8.96
2017-02-21T05:39:21.812Z,8.99
2017-02-21T05:41:34.794Z,9.05
2017-02-21T05:43:30.497Z,9.11
2017-02-21T05:44:14.598Z,9.02
2017-02-21T05:44:55.006Z,8.99
2017-02-21T05:45:35.418Z,9.03
2017-02-21T05:46:15.835Z,9.02
2017-02-21T05:46:56.294Z,9.02
2017-02-21T05:47:36.713Z,9.03
2017-02-21T05:48:17.096Z,9.09
2017-02-21T05:48:57.561Z,9.08
2017-02-21T05:49:37.995Z,8.99
2017-02-21T05:50:18.459Z,9.05
2017-02-21T17:56:36.522Z,9.59
2017-02-21T17:57:30.856Z,9.63
2017-02-21T17:58:30.964Z,9.66
2017-02-21T17:59:37.341Z,9.59
2017-02-21T18:00:30.333Z,9.63
2017-02-21T18:01:21.124Z,9.58
2017-02-21T18:37:18.877Z,9.74
2017-02-21T18:37:59.055Z,9.7
2017-02-21T18:38:42.052Z,9.74
2017-02-21T18:39:24.951Z,9.82
2017-02-21T18:40:05.342Z,9.73
2017-02-21T18:40:45.763Z,9.74
2017-02-21T18:56:16.453Z,9.91
2017-02-21T18:57:03.524Z,10.05
2017-02-21T19:31:42.330Z,9.74
2017-02-21T19:32:22.788Z,9.76
2017-02-21T19:33:03.303Z,9.8
2017-02-21T19:45:48.973Z,9.63
2017-02-21T19:46:30.145Z,9.7
2017-02-21T20:21:26.644Z,9.31
2017-02-21T20:22:07.133Z,9.31
2017-02-21T20:22:47.696Z,9.31
2017-02-21T20:55:52.834Z,9.03
2017-02-21T20:56:33.323Z,9.15
2017-02-21T20:57:13.843Z,9.21
2017-02-21T20:57:54.269Z,9.27
2017-02-21T20:58:34.911Z,9.4
2017-02-21T20:59:15.674Z,9.3
2017-02-21T20:59:56.151Z,9.34
2017-02-21T21:00:36.610Z,9.39
2017-02-21T21:01:17.049Z,9.34
2017-02-21T21:01:58.465Z,9.26
2017-02-21T21:02:38.977Z,9.27
2017-02-21T21:03:19.561Z,9.24
2017-02-21T21:03:59.933Z,9.16
2017-02-21T21:04:40.439Z,9.29
2017-02-21T21:05:21.849Z,9.22
2017-02-21T21:06:02.310Z,9.26
2017-02-21T21:06:42.825Z,9.18
2017-02-21T21:07:23.273Z,9.13
2017-02-21T21:08:03.735Z,9.11
2017-02-21T21:08:44.197Z,9.05
2017-02-21T21:09:25.481Z,9.11
2017-02-21T21:10:05.978Z,9.15
2017-02-21T21:10:46.445Z,9.16
2017-02-21T21:11:26.976Z,9.03
2017-02-21T21:12:07.405Z,9.02
2017-02-21T21:12:47.893Z,9.02
2017-02-21T21:13:28.402Z,9.03
2017-02-21T21:14:08.868Z,9.05
2017-02-21T21:14:49.329Z,9.02
2017-02-21T21:15:30.436Z,9.08
2017-02-21T21:17:18.198Z,8.96
2017-02-21T21:17:58.672Z,8.99
2017-02-21T21:18:39.133Z,9.09
2017-02-21T21:19:19.559Z,8.97
2017-02-21T21:20:00.064Z,8.97
2017-02-21T21:20:40.538Z,9
2017-02-21T21:21:20.980Z,8.95
2017-02-21T21:22:01.469Z,8.96
2017-02-21T21:22:42.032Z,8.99
2017-02-21T21:23:22.481Z,8.87
2017-02-21T21:24:03.010Z,8.96
2017-02-21T21:24:44.493Z,8.96
2017-02-21T21:25:24.919Z,8.96
2017-02-21T21:26:05.366Z,8.92
2017-02-21T21:26:45.817Z,8.95
2017-02-21T21:27:26.258Z,8.96
2017-02-21T21:28:06.712Z,8.95
2017-02-21T21:28:47.167Z,9.03
2017-02-21T21:29:27.609Z,9.02
2017-02-21T21:30:08.036Z,9.03
2017-02-21T21:30:48.522Z,9.03
2017-02-21T21:31:28.978Z,9.05
2017-02-21T21:32:09.433Z,9
2017-02-21T21:32:51.253Z,9.08
2017-02-21T21:33:31.706Z,9.05
2017-02-21T21:34:12.166Z,9.09
2017-02-21T21:34:52.663Z,9.02
2017-02-21T21:35:33.149Z,9.09
2017-02-21T21:36:13.612Z,9.02
2017-02-21T21:36:54.718Z,9.05
2017-02-21T21:37:35.166Z,8.99
2017-02-21T21:38:15.776Z,9.13
2017-02-21T21:38:56.161Z,9.11
2017-02-21T21:39:36.651Z,9.05
2017-02-21T21:40:17.093Z,9.09
2017-02-21T21:40:57.557Z,9.08
2017-02-21T21:41:38.622Z,9.15
2017-02-21T21:42:19.074Z,9.12
2017-02-21T21:43:01.417Z,9.11
2017-02-21T21:43:41.956Z,9.09
2017-02-21T21:44:22.347Z,9.05
2017-02-21T21:45:02.793Z,9.18
2017-02-21T21:45:43.272Z,9.09
2017-02-21T21:46:23.700Z,9.12
2017-02-21T21:47:04.164Z,9.09
2017-02-21T21:47:44.652Z,9.12
2017-02-21T21:48:25.137Z,9.12
2017-02-21T21:49:07.652Z,9.26
2017-02-21T21:49:49.738Z,9.22
2017-02-21T21:50:30.176Z,9.13
2017-02-21T21:51:10.623Z,9.15
2017-02-21T21:51:51.090Z,9.19
2017-02-21T21:52:31.508Z,9.21
2017-02-21T21:53:11.979Z,9.18
2017-02-21T21:53:53.425Z,9.21
2017-02-21T21:54:34.649Z,9.21
2017-02-21T21:55:15.071Z,9.19
2017-02-21T21:55:55.521Z,9.21
2017-02-21T21:56:36.732Z,9.21
2017-02-21T21:57:17.242Z,9.19
2017-02-21T21:57:57.656Z,9.27
2017-02-21T21:58:39.860Z,9.31
2017-02-21T21:59:20.912Z,9.3
2017-02-21T22:00:01.413Z,9.24
2017-02-21T22:00:41.886Z,9.21
2017-02-21T22:01:23.896Z,9.3
2017-02-21T22:02:04.398Z,9.3
2017-02-21T22:02:44.860Z,9.3
2017-02-21T22:03:25.841Z,9.26
2017-02-21T22:04:06.338Z,9.34
2017-02-21T22:04:46.794Z,9.29
2017-02-21T22:05:27.743Z,9.29
2017-02-21T22:06:08.229Z,9.27
2017-02-21T22:06:48.664Z,9.31
2017-02-21T22:07:29.985Z,9.3
2017-02-21T22:08:10.472Z,9.34
2017-02-21T22:08:51.845Z,9.31
2017-02-21T22:09:32.277Z,9.31
2017-02-21T22:10:12.995Z,9.36
2017-02-21T22:10:53.448Z,9.31
2017-02-21T22:11:33.910Z,9.31
2017-02-21T22:12:14.368Z,9.37
2017-02-21T22:12:54.868Z,9.31
2017-02-21T22:13:35.335Z,9.39
2017-02-21T22:14:16.373Z,9.34
2017-02-21T22:14:56.783Z,9.34
2017-02-21T22:15:37.294Z,9.4
2017-02-21T22:16:17.750Z,9.36
2017-02-21T22:16:58.227Z,9.36
2017-02-21T22:17:38.698Z,9.39
2017-02-21T22:18:19.210Z,9.33
2017-02-21T22:19:00.495Z,9.39
2017-02-21T22:19:41.738Z,9.36
2017-02-21T22:20:22.199Z,9.39
2017-02-21T22:21:02.666Z,9.31
2017-02-21T22:21:43.094Z,9.39
2017-02-21T22:22:24.429Z,9.36
2017-02-21T22:23:06.249Z,9.39
2017-02-21T22:23:46.684Z,9.36
2017-02-21T22:24:27.133Z,9.31
2017-02-21T22:25:07.633Z,9.37
2017-02-21T22:25:49.539Z,9.42
2017-02-21T22:26:29.993Z,9.34
2017-02-21T22:27:12.245Z,9.29
2017-02-21T22:27:52.705Z,9.31
2017-02-21T22:28:33.201Z,9.47
2017-02-21T22:29:14.365Z,9.34
2017-02-21T22:29:54.807Z,9.48
2017-02-21T22:30:35.288Z,9.49
2017-02-21T22:31:15.757Z,9.42
2017-02-21T22:31:56.292Z,9.47
2017-02-21T22:32:36.732Z,9.42
2017-02-21T22:34:49.534Z,9.54
2017-02-21T22:35:29.993Z,9.44
2017-02-21T22:36:10.448Z,9.51
2017-02-21T22:36:52.207Z,9.48
2017-02-21T22:37:32.656Z,9.4
2017-02-21T22:38:13.125Z,9.44
2017-02-21T22:38:55.382Z,9.51
2017-02-21T22:39:35.853Z,9.51
2017-02-21T22:40:16.359Z,9.45
2017-02-21T22:40:57.476Z,9.52
2017-02-21T22:41:38.496Z,9.44
2017-02-21T22:42:18.935Z,9.47
2017-02-21T22:42:59.424Z,9.52
2017-02-21T22:43:39.865Z,9.49
2017-02-21T22:44:20.313Z,9.49
2017-02-21T22:45:00.757Z,9.51
2017-02-21T22:45:41.200Z,9.49
2017-02-21T22:46:21.669Z,9.55
2017-02-21T22:47:02.088Z,9.48
2017-02-21T22:47:42.594Z,9.47
2017-02-21T22:48:23.018Z,9.45
2017-02-21T22:49:03.465Z,9.52
2017-02-21T22:49:43.975Z,9.54
2017-02-21T22:50:24.489Z,9.52
2017-02-21T22:51:04.860Z,9.56
2017-02-21T22:51:45.342Z,9.54
2017-02-21T22:52:25.769Z,9.54
2017-02-21T22:53:06.244Z,9.56
2017-02-21T22:53:46.670Z,9.58
2017-02-21T22:54:27.144Z,9.52
2017-02-21T22:55:07.569Z,9.55
2017-02-21T22:55:48.027Z,9.55
2017-02-21T22:56:28.537Z,9.49
2017-02-21T22:57:09.003Z,9.59
2017-02-21T22:57:49.404Z,9.62
2017-02-21T22:58:29.871Z,9.52
2017-02-21T22:59:10.364Z,9.59
2017-02-21T22:59:50.752Z,9.58
2017-02-21T23:00:31.196Z,9.54
2017-02-21T23:01:11.651Z,9.66
2017-02-21T23:01:52.108Z,9.62
2017-02-21T23:02:32.569Z,9.66
2017-02-21T23:03:13.067Z,9.66
2017-02-21T23:03:53.511Z,9.59
2017-02-21T23:04:33.942Z,9.66
2017-02-21T23:05:14.404Z,9.64
2017-02-21T23:05:55.025Z,9.62
2017-02-21T23:06:35.447Z,9.64
2017-02-21T23:07:15.911Z,9.64
2017-02-21T23:07:56.392Z,9.69
2017-02-21T23:08:36.846Z,9.59
2017-02-21T23:09:17.281Z,9.58
2017-02-21T23:09:57.726Z,9.69
2017-02-21T23:10:38.232Z,9.56
2017-02-21T23:11:18.727Z,9.56
2017-02-21T23:11:59.175Z,9.49
2017-02-21T23:12:39.659Z,9.59
2017-02-21T23:13:20.082Z,9.56
2017-02-21T23:14:00.564Z,9.56
2017-02-21T23:14:41.044Z,9.58
2017-02-21T23:15:21.517Z,9.52
2017-02-21T23:16:02.907Z,9.52
2017-02-21T23:16:43.372Z,9.51
2017-02-21T23:17:23.830Z,9.55
2017-02-21T23:18:04.471Z,9.56
2017-02-21T23:18:45.896Z,9.54
2017-02-21T23:19:26.832Z,9.54
2017-02-21T23:20:07.313Z,9.54
2017-02-21T23:20:47.774Z,9.51
2017-02-21T23:21:28.737Z,9.51
2017-02-21T23:22:09.207Z,9.49
2017-02-21T23:22:49.657Z,9.51
2017-02-21T23:23:30.107Z,9.49
2017-02-21T23:24:10.596Z,9.51
2017-02-21T23:24:51.050Z,9.48
2017-02-21T23:25:31.527Z,9.51
2017-02-21T23:26:11.984Z,9.45
2017-02-21T23:26:52.469Z,9.48
2017-02-21T23:27:32.908Z,9.49
2017-02-21T23:28:13.359Z,9.52
2017-02-21T23:28:53.806Z,9.47
2017-02-21T23:29:34.253Z,9.47
2017-02-21T23:30:14.756Z,9.45
2017-02-21T23:30:55.467Z,9.44
2017-02-21T23:31:35.985Z,9.45
2017-02-21T23:32:16.506Z,9.47
2017-02-21T23:32:56.970Z,9.54
2017-02-21T23:33:37.414Z,9.47
2017-02-21T23:34:17.977Z,9.51
2017-02-21T23:34:58.392Z,9.51
2017-02-21T23:35:38.847Z,9.48
2017-02-21T23:36:19.293Z,9.51
2017-02-21T23:37:01.723Z,9.48
2017-02-21T23:37:42.284Z,9.47
2017-02-21T23:38:22.732Z,9.48
2017-02-21T23:39:03.189Z,9.51
2017-02-21T23:39:43.694Z,9.54
2017-02-21T23:40:24.130Z,9.56
2017-02-21T23:41:05.520Z,9.56
2017-02-21T23:41:45.968Z,9.55
2017-02-21T23:42:26.407Z,9.58
2017-02-21T23:43:07.496Z,9.54
2017-02-21T23:43:48.334Z,9.58
2017-02-21T23:44:28.785Z,9.54
2017-02-21T23:45:10.084Z,9.54
2017-02-21T23:45:50.538Z,9.58
2017-02-21T23:46:31.043Z,9.59
2017-02-21T23:47:11.533Z,9.54
2017-02-21T23:47:52.396Z,9.66
2017-02-21T23:48:32.911Z,9.63
2017-02-21T23:49:13.369Z,9.63
2017-02-21T23:49:53.848Z,9.54
2017-02-21T23:50:34.354Z,9.62
2017-02-21T23:51:14.824Z,9.67
2017-02-21T23:51:55.279Z,9.67
2017-02-21T23:52:35.785Z,9.62
2017-02-21T23:53:16.944Z,9.62
2017-02-21T23:53:57.530Z,9.67
2017-02-21T23:54:38.028Z,9.64
2017-02-21T23:55:19.466Z,9.64
2017-02-21T23:55:59.903Z,9.69
2017-02-21T23:56:40.397Z,9.64
2017-02-21T23:57:20.884Z,9.66
2017-02-21T23:58:01.953Z,9.62
2017-02-21T23:58:43.106Z,9.64
2017-02-21T23:59:23.984Z,9.66
